createdAt,value
2022-08-30T06:30:43.816Z,13.57
2022-08-30T06:35:58.467Z,13.90
2022-08-30T06:41:07.152Z,15.93
2022-08-30T06:46:14.312Z,16.38
2022-08-30T06:51:21.191Z,21.40
2022-08-30T06:56:27.408Z,15.88
2022-08-30T07:01:32.976Z,13.02
2022-08-30T07:06:36.583Z,14.00
2022-08-30T07:11:40.522Z,15.63
2022-08-30T07:16:46.554Z,13.38
2022-08-30T07:21:54.354Z,14.40
2022-08-30T07:26:57.920Z,13.38
2022-08-30T07:32:02.968Z,14.18
2022-08-30T07:37:06.410Z,11.48
2022-08-30T07:42:09.777Z,15.48
2022-08-30T07:47:14.445Z,19.15
2022-08-30T07:52:18.166Z,11.65
2022-08-30T07:57:21.687Z,11.52
2022-08-30T08:02:26.501Z,9.52
2022-08-30T08:07:31.236Z,11.90
2022-08-30T08:12:34.962Z,11.68
2022-08-30T08:17:39.789Z,17.05
2022-08-30T08:22:43.151Z,13.30
2022-08-30T08:27:48.855Z,5.97
2022-08-30T08:32:54.164Z,7.50
2022-08-30T08:37:57.461Z,8.27
2022-08-30T08:43:06.264Z,7.78
2022-08-30T08:48:15.945Z,10.57
2022-08-30T08:53:51.722Z,6.97
2022-08-30T08:58:57.444Z,4.85
2022-08-30T09:04:09.168Z,5.78
2022-08-30T09:09:13.319Z,6.07
2022-08-30T09:14:22.343Z,4.68
2022-08-30T09:19:40.160Z,4.60
2022-08-30T09:24:46.507Z,5.05
2022-08-30T09:29:55.658Z,9.50
2022-08-30T09:35:01.160Z,5.75
2022-08-30T09:40:13.378Z,9.05
2022-08-30T09:50:34.313Z,7.72
2022-08-30T09:55:55.821Z,5.68
2022-08-30T10:01:06.684Z,7.63
2022-08-30T10:06:23.089Z,4.35
2022-08-30T10:11:33.523Z,7.57
2022-08-30T10:16:54.335Z,4.28
2022-08-30T10:22:05.017Z,3.17
2022-08-30T10:27:14.691Z,3.65
2022-08-30T10:32:25.258Z,4.22
2022-08-30T10:37:33.096Z,4.82
2022-08-30T10:42:40.073Z,5.18
2022-08-30T10:47:47.958Z,5.70
2022-08-30T10:53:00.527Z,3.53
2022-08-30T10:58:06.579Z,4.63
2022-08-30T11:03:48.526Z,7.13
2022-08-30T11:09:26.771Z,4.28
2022-08-30T11:14:31.445Z,11.95
2022-08-30T11:19:40.845Z,3.45
2022-08-30T11:25:02.955Z,4.18
2022-08-30T11:30:52.794Z,4.18
2022-08-30T11:35:56.687Z,5.87
2022-08-30T11:41:10.586Z,3.05
2022-08-30T11:46:24.371Z,4.30
2022-08-30T11:52:08.193Z,3.35
2022-08-30T11:57:21.834Z,2.63
2022-08-30T12:02:52.138Z,3.58
2022-08-30T12:08:01.592Z,6.95
2022-08-30T12:13:06.681Z,6.07
2022-08-30T12:18:30.232Z,3.38
2022-08-30T12:23:44.432Z,7.93
2022-08-30T12:28:52.134Z,8.05
2022-08-30T12:34:00.739Z,6.28
2022-08-30T12:39:11.273Z,4.90
2022-08-30T12:44:20.019Z,2.80
2022-08-30T12:49:27.131Z,7.75
2022-08-30T12:54:32.185Z,4.70
2022-08-30T12:59:56.714Z,3.63
2022-08-30T13:05:34.547Z,3.17
2022-08-30T13:10:38.281Z,6.80
2022-08-30T13:15:43.880Z,3.38
2022-08-30T13:20:48.926Z,3.58
2022-08-30T13:25:52.387Z,5.38
2022-08-30T13:30:55.884Z,1.92
2022-08-30T13:36:00.935Z,2.92
2022-08-30T13:41:04.285Z,4.13
2022-08-30T13:46:09.524Z,2.03
2022-08-30T13:51:15.266Z,3.58
2022-08-30T13:56:18.895Z,3.40
2022-08-30T14:01:24.867Z,2.83
2022-08-30T14:06:33.907Z,2.17
2022-08-30T14:11:38.034Z,2.35
2022-08-30T14:16:43.670Z,5.13
2022-08-30T14:21:49.403Z,4.32
2022-08-30T14:26:53.309Z,5.47
2022-08-30T14:31:56.908Z,4.95
2022-08-30T14:37:06.716Z,4.10
2022-08-30T14:42:12.660Z,5.85
2022-08-30T14:47:25.648Z,6.10
2022-08-30T14:52:34.480Z,3.35
2022-08-30T14:57:39.571Z,4.10
2022-08-30T15:02:43.025Z,3.97
2022-08-30T15:07:50.931Z,2.42
2022-08-30T15:12:54.571Z,3.72
2022-08-30T15:17:58.322Z,3.33
2022-08-30T15:23:03.140Z,3.75
2022-08-30T15:28:08.674Z,1.83
2022-08-30T15:33:13.863Z,3.55
2022-08-30T15:38:19.502Z,4.30
2022-08-30T15:43:25.552Z,2.50
2022-08-30T15:48:29.029Z,5.18
2022-08-30T15:53:36.142Z,4.28
2022-08-30T15:58:39.622Z,3.97
2022-08-30T16:03:44.862Z,3.67
2022-08-30T16:08:51.427Z,2.42
2022-08-30T16:13:59.117Z,4.70
2022-08-30T16:19:02.716Z,3.08
2022-08-30T16:24:13.446Z,5.20
2022-08-30T16:29:17.386Z,1.27
2022-08-30T16:34:22.378Z,3.92
2022-08-30T16:39:27.238Z,1.65
2022-08-30T16:44:30.910Z,6.88
2022-08-30T16:49:34.443Z,2.92
2022-08-30T16:54:39.221Z,2.00
2022-08-30T16:59:44.466Z,3.88
2022-08-30T17:04:52.783Z,2.58
2022-08-30T17:09:58.564Z,2.55
2022-08-30T17:15:02.131Z,7.22
2022-08-30T17:20:10.614Z,3.63
2022-08-30T17:25:15.539Z,5.88
2022-08-30T17:30:19.341Z,3.60
2022-08-30T17:35:23.809Z,3.72
2022-08-30T17:40:29.916Z,3.38
2022-08-30T17:45:33.564Z,4.15
2022-08-30T17:50:37.587Z,2.17
2022-08-30T17:55:48.304Z,3.17
2022-08-30T18:00:54.132Z,7.93
2022-08-30T18:05:57.815Z,4.00
2022-08-30T18:11:04.112Z,3.75
2022-08-30T18:16:10.276Z,5.05
2022-08-30T18:21:18.263Z,3.00
2022-08-30T18:26:27.939Z,5.55
2022-08-30T18:31:32.130Z,2.30
2022-08-30T18:36:36.186Z,6.40
2022-08-30T18:41:43.143Z,2.97
2022-08-30T18:46:55.919Z,3.00
2022-08-30T18:52:00.534Z,3.05
2022-08-30T18:57:06.105Z,4.38
2022-08-30T19:02:14.601Z,5.88
2022-08-30T19:07:20.355Z,2.03
2022-08-30T19:12:26.078Z,3.45
2022-08-30T19:17:31.123Z,4.47
2022-08-30T19:23:05.845Z,4.47
2022-08-30T19:27:59.787Z,3.72
2022-08-30T19:33:03.717Z,6.10
2022-08-30T19:38:09.482Z,3.38
2022-08-30T19:43:14.880Z,3.00
2022-08-30T19:48:22.618Z,5.60
2022-08-30T19:53:26.023Z,6.47
2022-08-30T19:58:31.257Z,5.93
2022-08-30T20:03:34.954Z,6.00
2022-08-30T20:08:38.550Z,7.43
2022-08-30T20:13:45.438Z,8.20
2022-08-30T20:18:49.639Z,9.95
2022-08-30T20:23:52.941Z,15.68
2022-08-30T20:28:59.925Z,6.90
2022-08-30T20:34:04.651Z,5.43
2022-08-30T20:39:09.836Z,6.55
2022-08-30T20:44:15.106Z,3.40
2022-08-30T20:49:19.614Z,5.32
2022-08-30T20:54:23.056Z,4.65
2022-08-30T20:59:28.716Z,6.35
2022-08-30T21:04:32.595Z,4.03
2022-08-30T21:09:37.066Z,6.60
2022-08-30T21:14:42.109Z,4.88
2022-08-30T21:19:46.271Z,10.38
2022-08-30T21:24:49.653Z,5.22
2022-08-30T21:29:54.384Z,3.55
2022-08-30T21:35:15.663Z,6.55
2022-08-30T21:40:19.262Z,7.25
2022-08-30T21:45:23.989Z,5.07
2022-08-30T21:50:27.538Z,4.90
2022-08-30T21:55:30.893Z,8.50
2022-08-30T22:00:35.687Z,4.60
2022-08-30T22:05:39.042Z,2.90
2022-08-30T22:10:45.032Z,3.42
2022-08-30T22:15:49.962Z,4.93
2022-08-30T22:20:53.357Z,5.15
2022-08-30T22:25:57.149Z,5.85
2022-08-30T22:31:04.235Z,7.70
2022-08-30T22:36:09.966Z,4.40
2022-08-30T22:41:15.502Z,4.88
2022-08-30T22:46:21.604Z,4.85
2022-08-30T22:51:33.765Z,7.35
2022-08-30T22:56:38.746Z,3.63
2022-08-30T23:01:44.091Z,6.43
2022-08-30T23:06:49.599Z,4.25
2022-08-30T23:11:53.575Z,4.10
2022-08-30T23:16:58.611Z,7.03
2022-08-30T23:22:02.662Z,4.82
2022-08-30T23:27:23.588Z,4.63
2022-08-30T23:32:45.810Z,4.65
2022-08-30T23:38:07.412Z,4.90
2022-08-30T23:43:28.782Z,4.50
2022-08-30T23:48:52.101Z,3.22
2022-08-30T23:54:13.459Z,4.38
2022-08-30T23:59:34.491Z,4.30
